Crossford, United Kingdom
Current Conditions -  °F | °C
As of 9:20 PM on Monday 24 Nov 2014 (Local Time) from EGPH Reporting Station
Clear Clear  
Wind Chill: 40°   Ceiling: Unl
Heat Index: 45°   Visibility: 6mi
Dew Point: 39°   Wind: 9mph
Humidity: 81%   Direction: 270°W
Pressure: 30.21"   Gusts: NA
Location:  56.05°N, 3.5°W
Report Text: EGPH 242120Z 27008KT CAVOK 07/04 Q1023
Loading
Personal Weather Stations






























Interactive Weather Map New forecast layout! Learn more

10-Day Weather Forecast

Advertisements
Track Severe Weather on mobile